Time;durP1;ratioP1;P1;durP2;ratioP2;P2;SDS_P1;SDS_P2;PMS_P1;PMS_P2;Temp;Humidity;BMP_temperature;BMP_pressure;BME280_temperature;BME280_humidity;BME280_pressure;Samples;Min_cycle;Max_cycle;Signal;HPM_P1;HPM_P2
2023/05/10 00:00:54;;;;;;;40.87;17.90;;;;;;;;;;5037093;28;20044;-79
2023/05/10 00:03:20;;;;;;;54.83;19.20;;;;;;;;;;5040916;28;20078;-78
2023/05/10 00:05:46;;;;;;;64.33;19.87;;;;;;;;;;5038544;28;20045;-79
2023/05/10 00:08:12;;;;;;;43.30;18.23;;;;;;;;;;5040685;28;21564;-79
2023/05/10 00:10:38;;;;;;;66.97;21.40;;;;;;;;;;5039909;28;20029;-79
2023/05/10 00:13:06;;;;;;;80.50;22.43;;;;;;;;;;5041476;28;20286;-80
2023/05/10 00:15:32;;;;;;;70.03;21.23;;;;;;;;;;5040284;28;20112;-78
2023/05/10 00:17:58;;;;;;;88.40;23.23;;;;;;;;;;5040415;28;20458;-79
2023/05/10 00:20:24;;;;;;;106.57;25.27;;;;;;;;;;5040851;28;20029;-79
2023/05/10 00:22:50;;;;;;;74.60;24.13;;;;;;;;;;5040174;28;20112;-80
2023/05/10 00:25:16;;;;;;;72.23;24.03;;;;;;;;;;5038410;28;20029;-78
2023/05/10 00:27:42;;;;;;;81.67;24.43;;;;;;;;;;5039429;28;20095;-79
2023/05/10 00:30:09;;;;;;;97.50;26.67;;;;;;;;;;5039984;28;20025;-78
2023/05/10 00:32:35;;;;;;;109.37;28.27;;;;;;;;;;5036218;28;20025;-79
2023/05/10 00:35:03;;;;;;;73.27;25.57;;;;;;;;;;5037845;28;20219;-79
2023/05/10 00:37:29;;;;;;;99.87;27.63;;;;;;;;;;5040198;28;20055;-78
2023/05/10 00:39:55;;;;;;;81.80;26.73;;;;;;;;;;5041388;28;20056;-79
2023/05/10 00:42:22;;;;;;;90.70;28.53;;;;;;;;;;5039639;28;20021;-79
2023/05/10 00:44:49;;;;;;;113.70;28.67;;;;;;;;;;5041536;28;20085;-79
2023/05/10 00:47:16;;;;;;;88.20;27.53;;;;;;;;;;5042809;28;20053;-79
2023/05/10 00:49:42;;;;;;;100.53;30.97;;;;;;;;;;5043240;28;20022;-78
2023/05/10 00:52:10;;;;;;;96.97;30.10;;;;;;;;;;5043486;28;20068;-79
2023/05/10 00:54:39;;;;;;;105.27;30.13;;;;;;;;;;5041352;28;20025;-79
2023/05/10 00:57:05;;;;;;;101.47;30.47;;;;;;;;;;5040922;28;20036;-80
2023/05/10 00:59:31;;;;;;;96.87;28.97;;;;;;;;;;5043099;28;20040;-80
2023/05/10 01:01:58;;;;;;;91.77;28.30;;;;;;;;;;5040373;28;20130;-78
2023/05/10 01:04:26;;;;;;;124.23;30.17;;;;;;;;;;5041617;28;20047;-79
2023/05/10 01:06:53;;;;;;;83.00;29.43;;;;;;;;;;5042484;28;20021;-79
2023/05/10 01:12:51;;;;;;;73.23;26.83;;;;;;;;;;5286729;23;20060;-81
2023/05/10 01:15:18;;;;;;;92.87;28.87;;;;;;;;;;4996401;28;20114;-79
2023/05/10 01:17:45;;;;;;;95.87;28.23;;;;;;;;;;4997968;28;20518;-78
2023/05/10 01:20:11;;;;;;;105.10;28.67;;;;;;;;;;5014000;28;20030;-78
2023/05/10 01:22:41;;;;;;;101.67;27.70;;;;;;;;;;5000024;28;20145;-77
2023/05/10 01:25:25;;;;;;;95.40;27.30;;;;;;;;;;5019750;28;20038;-80
2023/05/10 01:28:09;;;;;;;66.17;24.07;;;;;;;;;;5019281;28;20309;-76
2023/05/10 01:31:04;;;;;;;63.73;23.27;;;;;;;;;;5005631;28;20010;-81
2023/05/10 01:33:42;;;;;;;58.03;22.07;;;;;;;;;;5024492;28;20041;-77
2023/05/10 01:36:27;;;;;;;74.63;23.60;;;;;;;;;;5009257;28;20061;-79
2023/05/10 01:39:12;;;;;;;75.63;25.23;;;;;;;;;;5029516;28;20057;-78
2023/05/10 01:41:47;;;;;;;70.30;24.63;;;;;;;;;;5027934;28;20050;-80
2023/05/10 01:44:18;;;;;;;71.73;24.63;;;;;;;;;;5027044;28;20034;-75
2023/05/10 01:46:49;;;;;;;73.10;24.20;;;;;;;;;;5029610;28;20042;-79
2023/05/10 01:49:24;;;;;;;75.87;24.97;;;;;;;;;;5016028;28;20116;-79
2023/05/10 01:51:53;;;;;;;79.93;24.90;;;;;;;;;;5026934;28;20041;-78
2023/05/10 01:54:21;;;;;;;73.90;24.17;;;;;;;;;;5017552;28;20065;-79
2023/05/10 01:56:49;;;;;;;73.53;24.90;;;;;;;;;;5015164;28;20022;-79
2023/05/10 01:59:17;;;;;;;78.13;24.43;;;;;;;;;;5013647;28;20056;-78
2023/05/10 02:01:46;;;;;;;69.37;24.20;;;;;;;;;;5031886;28;20035;-78
2023/05/10 02:04:16;;;;;;;100.57;26.37;;;;;;;;;;5031927;28;20025;-77
2023/05/10 02:06:43;;;;;;;79.23;24.20;;;;;;;;;;5031190;28;20094;-77
2023/05/10 02:09:10;;;;;;;72.57;22.67;;;;;;;;;;5013891;28;20060;-81
2023/05/10 02:11:38;;;;;;;79.07;22.57;;;;;;;;;;5029122;28;20053;-77
2023/05/10 02:14:06;;;;;;;74.53;22.00;;;;;;;;;;5027430;28;20045;-78
2023/05/10 02:16:32;;;;;;;62.50;19.50;;;;;;;;;;5007572;28;20049;-78
2023/05/10 02:18:59;;;;;;;64.03;21.67;;;;;;;;;;5026053;28;20061;-79
2023/05/10 02:21:26;;;;;;;67.57;19.70;;;;;;;;;;4995471;28;20033;-77
2023/05/10 02:23:52;;;;;;;54.63;17.13;;;;;;;;;;4997565;28;20037;-78
2023/05/10 02:26:20;;;;;;;49.30;14.93;;;;;;;;;;4993731;28;20096;-78
2023/05/10 02:28:46;;;;;;;47.40;17.47;;;;;;;;;;5017504;28;20117;-79
2023/05/10 02:31:12;;;;;;;48.17;16.93;;;;;;;;;;5001255;28;20034;-80
2023/05/10 02:33:42;;;;;;;50.80;17.10;;;;;;;;;;5005298;28;20030;-79
2023/05/10 02:36:09;;;;;;;38.73;15.63;;;;;;;;;;5004299;28;20023;-76
2023/05/10 02:38:35;;;;;;;51.33;16.40;;;;;;;;;;5000816;28;20036;-77
2023/05/10 02:41:02;;;;;;;46.03;15.23;;;;;;;;;;5009159;28;20042;-79
2023/05/10 02:43:29;;;;;;;42.60;14.67;;;;;;;;;;5009147;28;20053;-79
2023/05/10 02:45:55;;;;;;;48.83;15.97;;;;;;;;;;5005915;28;20084;-79
2023/05/10 02:48:21;;;;;;;34.83;14.00;;;;;;;;;;5011673;28;20030;-76
2023/05/10 02:50:51;;;;;;;42.23;15.93;;;;;;;;;;5026907;28;20022;-76
2023/05/10 02:53:19;;;;;;;36.57;13.93;;;;;;;;;;5024268;28;20013;-79
2023/05/10 02:55:50;;;;;;;40.27;13.73;;;;;;;;;;5027767;28;20466;-77
2023/05/10 02:58:19;;;;;;;39.93;15.20;;;;;;;;;;5013890;28;20018;-78
2023/05/10 03:00:46;;;;;;;42.47;14.77;;;;;;;;;;5027733;28;20081;-80
2023/05/10 03:03:12;;;;;;;45.60;15.03;;;;;;;;;;5026302;28;20041;-77
2023/05/10 03:05:38;;;;;;;47.20;16.50;;;;;;;;;;5031840;28;20029;-79
2023/05/10 03:08:07;;;;;;;35.87;15.23;;;;;;;;;;5025508;28;20089;-78
2023/05/10 03:10:34;;;;;;;46.63;15.73;;;;;;;;;;5031891;28;20025;-76
2023/05/10 03:13:06;;;;;;;43.83;15.77;;;;;;;;;;5010763;28;20034;-76
2023/05/10 03:15:40;;;;;;;44.55;16.00;;;;;;;;;;5029217;28;20056;-77
2023/05/10 03:18:25;;;;;;;47.13;15.90;;;;;;;;;;5031485;28;20086;-76
2023/05/10 03:20:57;;;;;;;47.33;15.33;;;;;;;;;;5031545;28;20068;-76
2023/05/10 03:23:27;;;;;;;43.05;15.50;;;;;;;;;;5014640;28;20053;-76
2023/05/10 03:25:54;;;;;;;49.97;15.67;;;;;;;;;;5025488;28;20053;-75
2023/05/10 03:28:21;;;;;;;52.83;15.63;;;;;;;;;;5012664;28;20045;-76
2023/05/10 03:30:47;;;;;;;59.43;17.07;;;;;;;;;;5015735;28;20022;-75
2023/05/10 03:33:15;;;;;;;57.17;17.40;;;;;;;;;;5014732;28;20027;-76
2023/05/10 03:35:41;;;;;;;56.87;17.07;;;;;;;;;;5016250;28;20048;-76
2023/05/10 03:38:07;;;;;;;46.53;16.57;;;;;;;;;;5011790;28;20029;-76
2023/05/10 03:40:33;;;;;;;61.93;18.07;;;;;;;;;;5013393;28;21970;-76
2023/05/10 03:42:59;;;;;;;64.20;18.87;;;;;;;;;;5030554;28;20065;-76
2023/05/10 03:45:25;;;;;;;61.53;19.43;;;;;;;;;;5031577;28;20046;-78
2023/05/10 03:47:51;;;;;;;92.27;22.07;;;;;;;;;;5011803;28;20049;-78
2023/05/10 03:50:26;;;;;;;67.07;20.13;;;;;;;;;;5028373;28;20066;-76
2023/05/10 03:52:52;;;;;;;76.03;22.07;;;;;;;;;;5011964;28;20049;-76
2023/05/10 03:55:22;;;;;;;110.97;24.83;;;;;;;;;;5030447;28;20253;-76
2023/05/10 03:57:49;;;;;;;89.67;24.53;;;;;;;;;;5011778;28;20041;-75
2023/05/10 04:00:15;;;;;;;88.80;25.63;;;;;;;;;;5028709;28;20017;-77
2023/05/10 04:02:41;;;;;;;100.47;24.93;;;;;;;;;;5028433;28;20030;-75
2023/05/10 04:05:08;;;;;;;107.87;25.50;;;;;;;;;;5009255;28;20102;-76
2023/05/10 04:07:34;;;;;;;87.07;26.10;;;;;;;;;;5029765;28;20030;-75
2023/05/10 04:10:00;;;;;;;65.33;25.03;;;;;;;;;;5013087;28;20010;-76
2023/05/10 04:12:26;;;;;;;75.47;25.17;;;;;;;;;;5009844;28;20045;-77
2023/05/10 04:14:52;;;;;;;80.23;26.83;;;;;;;;;;5023099;28;20064;-77
2023/05/10 04:17:18;;;;;;;75.77;28.77;;;;;;;;;;5010157;28;20036;-75
2023/05/10 04:19:44;;;;;;;77.57;28.30;;;;;;;;;;5025293;28;20045;-75
2023/05/10 04:22:10;;;;;;;82.60;27.93;;;;;;;;;;5013130;28;20106;-78
2023/05/10 04:24:36;;;;;;;77.70;27.40;;;;;;;;;;5025205;28;20359;-76
2023/05/10 04:27:05;;;;;;;75.17;26.83;;;;;;;;;;5026252;28;20033;-76
2023/05/10 04:29:31;;;;;;;82.17;28.30;;;;;;;;;;5013259;28;20030;-76
2023/05/10 04:31:57;;;;;;;85.47;30.67;;;;;;;;;;5027438;28;20021;-75
2023/05/10 04:34:26;;;;;;;90.20;31.27;;;;;;;;;;5011020;28;20048;-77
2023/05/10 04:36:52;;;;;;;76.90;30.97;;;;;;;;;;5029966;28;20092;-77
2023/05/10 04:39:18;;;;;;;94.53;34.00;;;;;;;;;;5029602;28;20026;-75
2023/05/10 04:41:44;;;;;;;87.30;33.20;;;;;;;;;;5029279;28;20041;-76
2023/05/10 04:44:10;;;;;;;78.57;31.77;;;;;;;;;;5014464;28;20034;-77
2023/05/10 04:46:38;;;;;;;80.90;32.83;;;;;;;;;;5024333;28;20222;-77
2023/05/10 04:49:04;;;;;;;89.87;35.20;;;;;;;;;;5012843;28;20017;-76
2023/05/10 04:51:31;;;;;;;85.17;33.77;;;;;;;;;;5011799;28;20045;-75
2023/05/10 04:53:57;;;;;;;87.03;34.60;;;;;;;;;;5027314;28;20098;-76
2023/05/10 04:56:23;;;;;;;76.27;31.87;;;;;;;;;;5012682;28;20033;-78
2023/05/10 04:58:49;;;;;;;75.43;32.90;;;;;;;;;;5028859;28;20014;-76
2023/05/10 05:01:15;;;;;;;64.17;30.47;;;;;;;;;;5030677;28;20034;-76
2023/05/10 05:03:42;;;;;;;81.10;33.87;;;;;;;;;;5028871;28;21080;-77
2023/05/10 05:06:08;;;;;;;73.73;31.87;;;;;;;;;;5030956;28;20024;-76
2023/05/10 05:08:37;;;;;;;66.17;27.67;;;;;;;;;;5012200;28;20022;-76
2023/05/10 05:11:03;;;;;;;61.53;27.30;;;;;;;;;;5014986;28;20024;-77
2023/05/10 05:13:29;;;;;;;56.23;24.00;;;;;;;;;;5034790;28;20037;-76
2023/05/10 05:15:55;;;;;;;58.83;24.70;;;;;;;;;;5015570;28;20022;-78
2023/05/10 05:18:21;;;;;;;60.77;25.77;;;;;;;;;;5014691;28;20041;-77
2023/05/10 05:20:47;;;;;;;61.10;26.63;;;;;;;;;;5031566;28;20053;-77
2023/05/10 05:23:13;;;;;;;69.70;26.30;;;;;;;;;;5031127;28;20019;-76
2023/05/10 05:25:39;;;;;;;44.63;23.47;;;;;;;;;;5032942;28;20264;-76
2023/05/10 05:28:05;;;;;;;57.70;24.83;;;;;;;;;;5014309;28;20032;-77
2023/05/10 05:30:34;;;;;;;52.67;23.40;;;;;;;;;;5033520;28;20026;-76
2023/05/10 05:33:00;;;;;;;49.77;22.60;;;;;;;;;;5018201;28;20025;-76
2023/05/10 05:35:26;;;;;;;71.10;25.53;;;;;;;;;;5015239;28;20034;-77
2023/05/10 05:37:52;;;;;;;52.77;25.67;;;;;;;;;;5013740;28;20025;-76
2023/05/10 05:40:20;;;;;;;59.23;26.23;;;;;;;;;;5034225;28;20032;-77
2023/05/10 05:42:46;;;;;;;56.27;24.83;;;;;;;;;;5013081;28;20042;-77
2023/05/10 05:45:15;;;;;;;52.83;24.63;;;;;;;;;;5030408;28;20018;-76
2023/05/10 05:47:41;;;;;;;56.73;25.47;;;;;;;;;;5030768;28;20102;-76
2023/05/10 05:50:07;;;;;;;55.70;24.17;;;;;;;;;;5016448;28;20033;-78
2023/05/10 05:52:34;;;;;;;53.30;23.07;;;;;;;;;;5016228;28;20041;-76
2023/05/10 05:55:00;;;;;;;52.10;22.23;;;;;;;;;;5029891;28;20030;-78
2023/05/10 05:57:26;;;;;;;40.73;20.10;;;;;;;;;;5019093;28;20094;-78
2023/05/10 05:59:52;;;;;;;40.87;19.47;;;;;;;;;;5013562;28;20021;-77
2023/05/10 06:02:18;;;;;;;40.70;18.53;;;;;;;;;;5032215;28;20042;-77
2023/05/10 06:04:44;;;;;;;43.40;18.43;;;;;;;;;;5015659;28;20010;-77
2023/05/10 06:07:11;;;;;;;39.07;19.33;;;;;;;;;;5014012;28;20093;-77
2023/05/10 06:09:40;;;;;;;41.00;18.23;;;;;;;;;;5013129;28;20106;-77
2023/05/10 06:12:06;;;;;;;38.90;18.00;;;;;;;;;;5029768;28;20037;-77
2023/05/10 06:14:32;;;;;;;42.60;19.07;;;;;;;;;;5011128;28;20041;-77
2023/05/10 06:16:59;;;;;;;51.13;19.53;;;;;;;;;;5031818;28;20061;-78
2023/05/10 06:19:26;;;;;;;41.07;19.63;;;;;;;;;;5016752;28;20018;-77
2023/05/10 06:21:52;;;;;;;37.57;18.77;;;;;;;;;;5012406;28;20040;-80
2023/05/10 06:24:18;;;;;;;38.00;18.67;;;;;;;;;;5013752;28;20041;-78
2023/05/10 06:26:46;;;;;;;41.30;20.27;;;;;;;;;;5015511;28;20085;-77
2023/05/10 06:29:12;;;;;;;43.27;20.43;;;;;;;;;;5014164;28;20045;-77
2023/05/10 06:31:39;;;;;;;41.03;20.17;;;;;;;;;;5016738;28;20047;-77
2023/05/10 06:34:07;;;;;;;47.43;20.87;;;;;;;;;;5030941;28;20087;-78
2023/05/10 06:36:33;;;;;;;42.33;20.13;;;;;;;;;;5014311;28;20034;-76
2023/05/10 06:38:59;;;;;;;51.40;22.00;;;;;;;;;;5032676;28;20038;-78
2023/05/10 06:41:28;;;;;;;58.13;21.50;;;;;;;;;;5018112;28;20072;-77
2023/05/10 06:43:54;;;;;;;46.13;22.93;;;;;;;;;;5029269;28;20021;-78
2023/05/10 06:46:20;;;;;;;51.27;23.43;;;;;;;;;;5014330;28;20058;-78
2023/05/10 06:48:46;;;;;;;51.80;23.03;;;;;;;;;;5015292;28;20018;-78
2023/05/10 06:51:12;;;;;;;52.53;23.37;;;;;;;;;;5013964;28;20057;-77
2023/05/10 06:53:45;;;;;;;51.93;23.33;;;;;;;;;;5033057;28;20053;-77
2023/05/10 06:56:14;;;;;;;45.30;22.37;;;;;;;;;;5030814;28;20198;-77
2023/05/10 06:58:42;;;;;;;50.83;23.33;;;;;;;;;;5032748;28;20034;-77
2023/05/10 07:01:08;;;;;;;58.67;25.03;;;;;;;;;;5031753;28;20034;-78
2023/05/10 07:03:35;;;;;;;46.33;22.07;;;;;;;;;;5031806;28;20468;-77
2023/05/10 07:06:04;;;;;;;43.13;21.27;;;;;;;;;;5028863;28;20042;-77
2023/05/10 07:08:33;;;;;;;43.30;20.93;;;;;;;;;;5033187;28;20243;-77
2023/05/10 07:11:01;;;;;;;49.33;22.53;;;;;;;;;;5008914;28;20025;-76
2023/05/10 07:13:27;;;;;;;49.57;24.63;;;;;;;;;;5014744;28;20037;-77
2023/05/10 07:15:53;;;;;;;51.10;24.93;;;;;;;;;;5013115;28;20026;-77
2023/05/10 07:18:19;;;;;;;47.63;21.30;;;;;;;;;;5032682;28;20033;-78
2023/05/10 07:20:45;;;;;;;48.43;22.90;;;;;;;;;;5031920;28;20018;-78
2023/05/10 07:23:23;;;;;;;53.70;22.30;;;;;;;;;;5015084;28;20034;-77
2023/05/10 07:25:51;;;;;;;54.43;23.80;;;;;;;;;;5014596;28;20101;-76
2023/05/10 07:28:17;;;;;;;55.70;23.57;;;;;;;;;;5027677;28;20033;-77
2023/05/10 07:30:43;;;;;;;47.97;23.33;;;;;;;;;;5028296;28;20057;-78
2023/05/10 07:33:11;;;;;;;42.00;21.60;;;;;;;;;;5015719;28;20018;-77
2023/05/10 07:35:37;;;;;;;47.10;21.20;;;;;;;;;;5012800;28;21106;-77
2023/05/10 07:38:04;;;;;;;52.40;22.57;;;;;;;;;;5026292;28;20022;-77
2023/05/10 07:40:30;;;;;;;52.87;24.43;;;;;;;;;;5014327;28;20053;-78
2023/05/10 07:42:56;;;;;;;45.33;21.43;;;;;;;;;;5029215;28;20025;-77
2023/05/10 07:45:22;;;;;;;46.33;22.90;;;;;;;;;;5013717;28;20033;-78
2023/05/10 07:47:48;;;;;;;43.97;22.03;;;;;;;;;;5014246;28;20052;-78
2023/05/10 07:50:15;;;;;;;37.43;20.60;;;;;;;;;;5012046;28;20060;-79
2023/05/10 07:52:46;;;;;;;42.37;19.83;;;;;;;;;;5028958;28;20350;-78
2023/05/10 07:55:12;;;;;;;35.10;19.90;;;;;;;;;;5011826;28;20022;-78
2023/05/10 07:57:39;;;;;;;38.80;19.30;;;;;;;;;;5014250;28;20022;-78
2023/05/10 08:00:05;;;;;;;31.30;16.67;;;;;;;;;;5012751;28;20072;-78
2023/05/10 08:02:34;;;;;;;31.90;16.27;;;;;;;;;;5010990;28;20034;-77
2023/05/10 08:05:06;;;;;;;37.90;16.60;;;;;;;;;;5014592;28;20026;-77
2023/05/10 08:07:34;;;;;;;43.30;17.90;;;;;;;;;;5012839;28;20038;-78
2023/05/10 08:10:00;;;;;;;40.47;18.27;;;;;;;;;;5030904;28;20033;-77
2023/05/10 08:12:32;;;;;;;36.63;18.27;;;;;;;;;;5029403;28;20038;-78
2023/05/10 08:14:58;;;;;;;42.90;17.87;;;;;;;;;;5026012;28;20018;-77
2023/05/10 08:17:24;;;;;;;36.20;16.60;;;;;;;;;;5029224;28;20038;-77
2023/05/10 08:19:50;;;;;;;37.97;18.07;;;;;;;;;;5014060;28;20017;-76
2023/05/10 08:22:16;;;;;;;33.43;14.83;;;;;;;;;;5030006;28;20097;-77
2023/05/10 08:24:42;;;;;;;38.97;17.30;;;;;;;;;;5027188;28;20049;-77
2023/05/10 08:27:09;;;;;;;35.60;17.23;;;;;;;;;;5027077;28;20037;-76
2023/05/10 08:29:35;;;;;;;31.60;15.60;;;;;;;;;;5026263;28;20093;-77
2023/05/10 08:32:08;;;;;;;30.60;15.67;;;;;;;;;;5013383;28;20037;-77
2023/05/10 08:34:35;;;;;;;28.67;14.77;;;;;;;;;;5010991;28;20033;-76
2023/05/10 08:37:04;;;;;;;26.93;16.30;;;;;;;;;;5030166;28;20021;-77
2023/05/10 08:39:31;;;;;;;43.60;17.10;;;;;;;;;;5012828;28;20026;-75
2023/05/10 08:42:02;;;;;;;55.27;18.83;;;;;;;;;;5011049;28;20057;-77
2023/05/10 08:44:28;;;;;;;42.30;17.77;;;;;;;;;;5012157;28;20110;-74
2023/05/10 08:46:54;;;;;;;52.20;21.63;;;;;;;;;;5011513;28;20034;-77
2023/05/10 08:49:21;;;;;;;50.00;23.50;;;;;;;;;;5026522;28;20030;-78
2023/05/10 08:51:52;;;;;;;74.57;28.47;;;;;;;;;;5017182;28;20176;-79
2023/05/10 08:54:18;;;;;;;86.27;32.23;;;;;;;;;;5005064;28;20026;-75
2023/05/10 08:56:44;;;;;;;83.70;32.97;;;;;;;;;;5020817;28;20033;-77
2023/05/10 08:59:12;;;;;;;87.63;34.90;;;;;;;;;;5002559;28;20074;-79
2023/05/10 09:01:38;;;;;;;87.33;34.53;;;;;;;;;;5004152;28;20435;-78
2023/05/10 09:04:04;;;;;;;95.47;35.43;;;;;;;;;;5019309;28;20037;-78
2023/05/10 09:06:31;;;;;;;90.03;34.87;;;;;;;;;;5021286;28;20042;-75
2023/05/10 09:08:58;;;;;;;80.35;32.35;;;;;;;;;;5025551;28;20439;-75
2023/05/10 09:11:24;;;;;;;77.17;33.70;;;;;;;;;;5011469;28;20093;-74
2023/05/10 09:13:51;;;;;;;89.83;33.83;;;;;;;;;;5011920;28;20034;-75
2023/05/10 09:16:17;;;;;;;72.53;30.90;;;;;;;;;;5026347;28;20048;-75
2023/05/10 09:18:43;;;;;;;76.07;32.23;;;;;;;;;;5011922;28;20025;-75
2023/05/10 09:21:10;;;;;;;77.63;32.60;;;;;;;;;;5011008;28;20121;-76
2023/05/10 09:23:36;;;;;;;91.73;33.77;;;;;;;;;;5028887;28;20049;-75
2023/05/10 09:26:06;;;;;;;81.67;33.73;;;;;;;;;;5027501;28;20052;-75
2023/05/10 09:28:35;;;;;;;68.10;28.60;;;;;;;;;;5012825;28;20026;-76
2023/05/10 09:31:06;;;;;;;68.63;27.93;;;;;;;;;;5025458;28;20030;-75
2023/05/10 09:33:44;;;;;;;50.07;23.27;;;;;;;;;;5012204;28;20026;-76
2023/05/10 09:36:10;;;;;;;45.20;22.77;;;;;;;;;;5026680;28;20045;-75
2023/05/10 09:38:46;;;;;;;37.00;19.47;;;;;;;;;;5011136;28;20310;-76
2023/05/10 09:41:24;;;;;;;37.03;18.37;;;;;;;;;;5014434;28;20030;-75
2023/05/10 09:43:56;;;;;;;32.90;19.07;;;;;;;;;;5012187;28;20030;-76
2023/05/10 09:46:22;;;;;;;35.63;19.85;;;;;;;;;;5011890;28;20060;-77
2023/05/10 09:48:48;;;;;;;29.70;16.95;;;;;;;;;;5028255;28;20030;-77
2023/05/10 09:51:21;;;;;;;26.25;14.95;;;;;;;;;;5028672;28;20030;-75
2023/05/10 09:53:50;;;;;;;20.27;12.90;;;;;;;;;;5010306;28;20018;-76
2023/05/10 09:56:38;;;;;;;19.67;12.32;;;;;;;;;;5030468;28;20018;-77
2023/05/10 09:59:12;;;;;;;21.98;13.45;;;;;;;;;;5034099;28;20019;-77
2023/05/10 10:01:43;;;;;;;22.77;14.32;;;;;;;;;;5029886;28;20129;-76
2023/05/10 10:04:10;;;;;;;20.73;13.57;;;;;;;;;;5015599;28;20034;-76
2023/05/10 10:06:37;;;;;;;20.65;12.13;;;;;;;;;;5031286;28;20029;-75
2023/05/10 10:09:03;;;;;;;22.50;12.10;;;;;;;;;;5015545;28;20011;-76
2023/05/10 10:11:29;;;;;;;21.10;13.00;;;;;;;;;;5031903;28;20059;-76
2023/05/10 10:13:57;;;;;;;16.48;11.50;;;;;;;;;;5012985;28;20413;-77
2023/05/10 10:16:26;;;;;;;15.30;10.73;;;;;;;;;;5032350;28;20049;-76
2023/05/10 10:18:58;;;;;;;21.40;12.10;;;;;;;;;;5016392;28;20085;-77
2023/05/10 10:21:27;;;;;;;15.00;9.98;;;;;;;;;;5016773;28;20053;-77
2023/05/10 10:23:55;;;;;;;20.75;11.55;;;;;;;;;;5015537;28;20140;-76
2023/05/10 10:26:22;;;;;;;18.75;10.80;;;;;;;;;;5016401;28;20022;-77
2023/05/10 10:28:48;;;;;;;16.58;10.55;;;;;;;;;;5028223;28;20023;-77
2023/05/10 10:31:32;;;;;;;15.15;9.82;;;;;;;;;;5032145;28;20104;-77
2023/05/10 10:34:10;;;;;;;19.17;10.40;;;;;;;;;;5031081;28;20025;-77
2023/05/10 10:36:49;;;;;;;13.85;8.80;;;;;;;;;;5031412;28;20021;-76
2023/05/10 10:39:24;;;;;;;17.67;10.07;;;;;;;;;;5029986;28;20097;-76
2023/05/10 10:41:53;;;;;;;15.80;9.38;;;;;;;;;;5030826;28;20034;-77
2023/05/10 10:44:25;;;;;;;15.85;9.20;;;;;;;;;;5012725;28;20029;-76
2023/05/10 10:47:23;;;;;;;13.73;8.70;;;;;;;;;;5032486;28;20022;-78
2023/05/10 10:49:56;;;;;;;15.40;9.23;;;;;;;;;;5013692;28;20061;-77
2023/05/10 10:52:30;;;;;;;15.82;8.32;;;;;;;;;;5013663;28;20022;-77
2023/05/10 10:55:12;;;;;;;14.35;8.07;;;;;;;;;;5012655;28;20040;-77
2023/05/10 10:57:43;;;;;;;14.68;9.20;;;;;;;;;;5012897;28;20040;-77
2023/05/10 11:00:19;;;;;;;18.05;10.55;;;;;;;;;;5029832;28;20092;-78
2023/05/10 11:02:49;;;;;;;16.55;10.07;;;;;;;;;;5026741;28;20077;-78
2023/05/10 11:05:36;;;;;;;15.98;8.80;;;;;;;;;;5027394;28;20045;-78
2023/05/10 11:08:08;;;;;;;11.88;8.40;;;;;;;;;;5015121;28;20028;-79
2023/05/10 11:10:34;;;;;;;8.40;6.30;;;;;;;;;;5011870;28;20057;-77
2023/05/10 11:13:07;;;;;;;14.00;7.32;;;;;;;;;;5013371;28;20264;-77
2023/05/10 11:15:39;;;;;;;9.95;6.60;;;;;;;;;;5029559;28;20050;-78
2023/05/10 11:18:27;;;;;;;10.98;6.35;;;;;;;;;;5010845;28;20032;-77
2023/05/10 11:21:04;;;;;;;9.48;5.15;;;;;;;;;;5026988;28;20061;-77
2023/05/10 11:23:32;;;;;;;8.63;6.03;;;;;;;;;;5029960;28;20018;-77
2023/05/10 11:25:58;;;;;;;7.88;5.22;;;;;;;;;;5028478;28;20058;-78
2023/05/10 11:28:28;;;;;;;6.50;5.05;;;;;;;;;;5029280;28;20022;-77
2023/05/10 11:30:55;;;;;;;6.97;4.55;;;;;;;;;;5028301;28;20021;-79
2023/05/10 11:33:24;;;;;;;5.03;3.78;;;;;;;;;;5010325;28;20030;-77
2023/05/10 11:35:50;;;;;;;4.18;3.30;;;;;;;;;;5012056;28;20128;-77
2023/05/10 11:38:16;;;;;;;4.75;3.35;;;;;;;;;;5028085;28;20018;-77
2023/05/10 11:40:43;;;;;;;3.65;2.60;;;;;;;;;;5012333;28;20106;-77
2023/05/10 11:43:11;;;;;;;3.47;2.20;;;;;;;;;;5031118;28;20304;-78
2023/05/10 11:45:37;;;;;;;4.93;2.20;;;;;;;;;;5031445;28;20026;-76
2023/05/10 11:48:03;;;;;;;3.45;2.00;;;;;;;;;;5026988;28;20050;-78
2023/05/10 11:50:29;;;;;;;2.85;1.98;;;;;;;;;;5012468;28;20037;-77
2023/05/10 11:52:56;;;;;;;2.10;1.63;;;;;;;;;;5029145;28;20474;-78
2023/05/10 11:55:23;;;;;;;4.78;2.40;;;;;;;;;;5029740;28;20028;-77
2023/05/10 11:57:52;;;;;;;3.13;2.50;;;;;;;;;;5011606;28;20030;-78
2023/05/10 12:00:20;;;;;;;2.28;1.90;;;;;;;;;;5029846;28;20029;-77
2023/05/10 12:02:49;;;;;;;2.50;2.13;;;;;;;;;;5012837;28;20033;-79
2023/05/10 12:05:18;;;;;;;3.15;1.95;;;;;;;;;;5027639;28;20018;-78
2023/05/10 12:07:46;;;;;;;4.13;1.95;;;;;;;;;;5024266;28;20022;-78
2023/05/10 12:10:16;;;;;;;1.80;1.50;;;;;;;;;;5026638;28;20089;-78
2023/05/10 12:12:43;;;;;;;3.83;2.20;;;;;;;;;;5012987;28;20022;-78
2023/05/10 12:15:18;;;;;;;3.33;2.50;;;;;;;;;;5028018;28;20021;-78
2023/05/10 12:17:44;;;;;;;2.83;2.40;;;;;;;;;;5027837;28;20040;-78
2023/05/10 12:20:15;;;;;;;2.63;2.03;;;;;;;;;;5009881;28;20144;-78
2023/05/10 12:22:43;;;;;;;3.03;2.22;;;;;;;;;;5026712;28;20040;-78
2023/05/10 12:25:12;;;;;;;2.75;2.20;;;;;;;;;;5027274;28;20014;-78
2023/05/10 12:27:38;;;;;;;2.05;1.70;;;;;;;;;;5009387;28;20030;-79
2023/05/10 12:30:04;;;;;;;3.50;2.47;;;;;;;;;;5026100;28;20022;-78
2023/05/10 12:32:45;;;;;;;2.55;2.25;;;;;;;;;;5025134;28;20221;-79
2023/05/10 12:35:11;;;;;;;3.58;2.63;;;;;;;;;;5027385;28;20022;-79
2023/05/10 12:37:40;;;;;;;3.67;2.70;;;;;;;;;;5025517;28;20036;-78
2023/05/10 12:40:07;;;;;;;3.45;2.08;;;;;;;;;;5016348;28;20093;-78
2023/05/10 12:42:35;;;;;;;1.95;1.75;;;;;;;;;;5009308;28;20044;-79
2023/05/10 12:45:04;;;;;;;2.55;1.80;;;;;;;;;;5030011;28;20052;-78
2023/05/10 12:47:33;;;;;;;3.47;2.05;;;;;;;;;;5010485;28;20038;-79
2023/05/10 12:50:00;;;;;;;3.90;2.35;;;;;;;;;;5026822;28;20098;-78
2023/05/10 12:52:28;;;;;;;3.92;2.30;;;;;;;;;;5026169;28;20026;-78
2023/05/10 12:54:54;;;;;;;3.20;2.28;;;;;;;;;;5012108;28;20014;-78
2023/05/10 12:57:21;;;;;;;2.60;2.10;;;;;;;;;;5010926;28;20158;-78
2023/05/10 12:59:47;;;;;;;2.72;2.15;;;;;;;;;;5011251;28;20022;-79
2023/05/10 13:02:17;;;;;;;2.58;1.80;;;;;;;;;;5011078;28;20033;-79
2023/05/10 13:04:46;;;;;;;1.58;1.00;;;;;;;;;;5011417;28;20038;-78
2023/05/10 13:07:13;;;;;;;1.33;0.98;;;;;;;;;;5029043;28;20045;-78
2023/05/10 13:09:39;;;;;;;3.83;1.65;;;;;;;;;;5010869;28;20032;-78
2023/05/10 13:12:05;;;;;;;3.42;2.10;;;;;;;;;;5013235;28;20037;-78
2023/05/10 13:14:34;;;;;;;2.60;1.90;;;;;;;;;;5011709;28;20018;-78
2023/05/10 13:17:02;;;;;;;2.95;1.40;;;;;;;;;;5028994;28;20037;-78
2023/05/10 13:19:29;;;;;;;1.65;1.40;;;;;;;;;;5014220;28;20014;-78
2023/05/10 13:21:55;;;;;;;1.73;1.50;;;;;;;;;;5030242;28;20054;-79
2023/05/10 13:24:21;;;;;;;2.50;2.08;;;;;;;;;;5009918;28;20023;-77
2023/05/10 13:26:48;;;;;;;2.42;1.50;;;;;;;;;;5027568;28;20010;-78
2023/05/10 13:29:17;;;;;;;1.98;1.13;;;;;;;;;;5013660;28;20017;-78
2023/05/10 13:31:43;;;;;;;2.80;1.00;;;;;;;;;;5033387;28;20045;-77
2023/05/10 13:34:09;;;;;;;5.95;1.23;;;;;;;;;;5014073;28;20061;-80
2023/05/10 13:36:35;;;;;;;1.85;1.20;;;;;;;;;;5014382;28;20029;-78
2023/05/10 13:39:03;;;;;;;2.15;0.88;;;;;;;;;;5011524;28;20021;-78
2023/05/10 13:41:29;;;;;;;1.25;1.00;;;;;;;;;;5015846;28;20033;-78
2023/05/10 13:43:58;;;;;;;1.90;1.10;;;;;;;;;;5014483;28;20081;-78
2023/05/10 13:46:24;;;;;;;1.73;0.90;;;;;;;;;;5015876;28;20022;-80
2023/05/10 13:48:50;;;;;;;1.63;0.77;;;;;;;;;;5015708;28;20088;-78
2023/05/10 13:51:16;;;;;;;2.45;0.85;;;;;;;;;;5032364;28;20042;-79
2023/05/10 13:53:42;;;;;;;1.80;1.02;;;;;;;;;;5013392;28;20049;-77
2023/05/10 13:56:08;;;;;;;2.70;0.93;;;;;;;;;;5029496;28;20026;-78
2023/05/10 13:58:36;;;;;;;0.65;0.52;;;;;;;;;;5032038;28;21054;-79
2023/05/10 14:01:02;;;;;;;1.00;0.60;;;;;;;;;;5013595;28;20110;-78
2023/05/10 14:03:28;;;;;;;0.77;0.52;;;;;;;;;;5018092;28;20355;-78
2023/05/10 14:05:54;;;;;;;2.50;0.70;;;;;;;;;;5015190;28;20090;-79
2023/05/10 14:08:20;;;;;;;1.45;0.75;;;;;;;;;;5014340;28;20033;-79
2023/05/10 14:10:46;;;;;;;1.42;0.80;;;;;;;;;;5033026;28;20045;-78
2023/05/10 14:13:12;;;;;;;2.42;0.80;;;;;;;;;;5015751;28;20034;-79
2023/05/10 14:15:38;;;;;;;2.10;0.75;;;;;;;;;;5032055;28;20021;-79
2023/05/10 14:18:05;;;;;;;0.90;0.70;;;;;;;;;;5029257;28;20094;-78
2023/05/10 14:20:31;;;;;;;1.17;1.02;;;;;;;;;;5029686;28;20033;-78
2023/05/10 14:22:58;;;;;;;1.88;0.90;;;;;;;;;;5014326;28;20017;-79
2023/05/10 14:25:24;;;;;;;1.77;0.70;;;;;;;;;;5021600;28;20232;-79
2023/05/10 14:27:50;;;;;;;2.00;0.90;;;;;;;;;;5032849;28;20045;-79
2023/05/10 14:30:16;;;;;;;8.32;1.63;;;;;;;;;;5013805;28;20248;-79
2023/05/10 14:32:43;;;;;;;2.85;0.80;;;;;;;;;;5032006;28;20057;-78